Flight Track Log - Related Links

Times and Time Zones

All times are in EDT time to prevent confusion due to time zone crossing. See the N317TT flight status page for this flight to view local times or setup timezone preferences in your user account.

Time Position Orientation Groundspeed Altitude Reporting Facility
EDT Latitude Longitude Course Direction KTS MPH feet Rate Location/Type
Thu 04:15:57 PM 42.1014 -79.1728 194° South 237 273 8,900  Level Cleveland Center
Thu 04:16:57 PM 42.0350 -79.1939 193° South 242 278 10,100 1,250 Climbing Cleveland Center
Thu 04:17:57 PM 41.9603 -79.2178 193° South 258 297 11,400 950 Climbing Cleveland Center
Thu 04:18:57 PM 41.8772 -79.2472 195° South 275 316 12,000 250 Climbing Cleveland Center
Thu 04:19:57 PM 41.8028 -79.3103 212° Southwest 307 353 11,900 -50 Descending Cleveland Center
Thu 04:20:57 PM 41.7350 -79.3867 220° Southwest 317 365 11,900  Level Cleveland Center
Thu 04:21:00 PM 41.7634 -79.3956 194° South  Level FlightAware Approximate
Thu 04:21:57 PM 41.6583 -79.4353 205° Southwest 317 365 11,900  Level Cleveland Center
Thu 04:22:57 PM 41.5814 -79.4672 197° South 306 352 12,100 50 Climbing Cleveland Center
Thu 04:23:57 PM 41.5192 -79.4933 197° South 283 326 12,000 -50 Descending Cleveland Center
Thu 04:24:57 PM 41.4506 -79.5167 194° South 268 308 12,000  Level Cleveland Center
Thu 04:25:57 PM 41.3819 -79.5425 196° South 263 303 12,000 50 Level Cleveland Center
Thu 04:26:57 PM 41.3133 -79.5631 193° South 258 297 12,100 50 Climbing Cleveland Center
Thu 04:27:57 PM 41.2386 -79.5836 192° South 263 303 12,100 -350 Level Cleveland Center
Thu 04:28:57 PM 41.1636 -79.6039 192° South 268 308 11,400 -850 Descending Cleveland Center
Thu 04:29:57 PM 41.0889 -79.6300 195° South 278 320 10,400 -750 Descending Cleveland Center
Thu 04:30:57 PM 41.0181 -79.6475 191° South 278 320 9,900 -250 Descending Cleveland Center
Thu 04:31:57 PM 40.9517 -79.6678 193° South 267 307 9,900 50 Level Cleveland Center
Thu 04:32:57 PM 40.8892 -79.6878 194° South 248 285 10,000 50 Climbing Cleveland Center
Thu 04:33:57 PM 40.8206 -79.7053 191° South 248 285 10,000  Level Cleveland Center
Thu 04:34:57 PM 40.7519 -79.7253 192° South 248 285 10,000 -450 Level Cleveland Center
Thu 04:35:57 PM 40.6833 -79.7453 192° South 253 291 9,100 -1,550 Descending Cleveland Center
Thu 04:36:57 PM 40.6147 -79.7653 192° South 258 297 6,900 -2,100 Descending Cleveland Center
Thu 04:37:57 PM 40.5500 -79.7825 191° South 258 297 4,900 -1,500 Descending Cleveland Center
Thu 04:38:57 PM 40.4897 -79.8022 194° South 234 269 3,900 -1,000 Descending Cleveland Center
Thu 04:40:00 PM 40.4286 -79.8601 197° South  Level Estimated
Thu 04:47:00 PM 40.3500 -79.9167 180° South  Level FlightAware Approximate
Thu 04:48:00 PM 40.3544 -79.9302 180° South  Level Estimated
Thu 04:49:00 PM 40.3544 -79.9302 180° South  Level Estimated
Thu 04:50:00 PM 40.3544 -79.9302 180° South  Level Estimated
Thu 04:51:00 PM 40.3544 -79.9302 180° South  Level Estimated

Login

Don't have an account? Register now (free) for customized features, flight alerts, and more!